Air Navigation Services of Czech Republic  
Last data update:  20.05.2022 19:32:34 UTC česká verze
   METEO Page displayed:  20.05.2022 19:33:51 UTC  
vysvětlivky
METAR EDDB 201920Z 02008KT 9999 SHRA SCT040CB 18/15 Q1011 TEMPO TSRA=
METAR EDDC 201920Z 16008KT 9999 FEW040 FEW060CB 21/18 Q1011 NOSIG=
METAR EDDE 201920Z AUTO 22007KT 190V250 9999 -SHRA FEW///TCU 18/16 Q1013 TEMPO -TSRA=
METAR EDDF 201920Z 25010KT 220V290 9999 FEW015 FEW030CB SCT045 20/16 Q1016 NOSIG=
METAR COR EDDM 201920Z VRB04KT 9999 -SHRA FEW070TCU 26/13 Q1016 NOSIG=
METAR EDDN 201920Z AUTO 10004KT 9999 SHRA FEW///TCU 18/17 Q1016 TEMPO 24008KT SHRA BKN045CB=
METAR EDDP 201920Z 23020G33KT 210V270 5000 TSRA SCT008 BKN025CB 19/18 Q1011 TEMPO SHRA=
METAR EDQM 201920Z AUTO 21011KT 9999 // NCD 18/15 Q1015=
METAR EPBY 201930Z 01006KT CAVOK 19/11 Q1012=
METAR EPGD 201930Z 31009KT CAVOK 14/10 Q1013=
METAR EPKK 201930Z 23002KT CAVOK 22/13 Q1015=
METAR EPKT 201930Z 21007KT CAVOK 21/14 Q1015=
METAR EPLL 201930Z 23002KT CAVOK 19/09 Q1013=
METAR EPPO 201930Z 11003KT CAVOK 19/11 Q1011=
METAR EPRZ 201930Z 21006KT CAVOK 20/10 Q1015=
METAR EPWA 201930Z 25003KT CAVOK 19/10 Q1013 NOSIG=
METAR EPWR 201930Z 14003KT CAVOK 21/15 Q1012=
METAR LHBP 201930Z VRB02KT CAVOK 19/14 Q1018 NOSIG=
METAR LHSM 201845Z AUTO 18002KT CAVOK 23/16 Q1018=
METAR LKBC NIL
METAR LKCS 201930Z AUTO 19003KT 9999 SCT150/// 24/14 Q1015=
METAR LKCV 201930Z 17009KT 9999 FEW050CB BKN120 25/15 Q1013 NOSIG RMK BLU BLU=
METAR LKKB 201930Z 24037G49KT 170V260 7000 TSRA BKN050CB 21/14 Q1014 NOSIG RMK BLU BLU=
METAR LKKU 201800Z 16006KT CAVOK 24/15 Q1016=
METAR LKKV 201900Z VRB02KT 9999 FEW001 FEW030CB 16/14 Q1015=
METAR LKLN 201930Z AUTO VRB04KT 9999 -TSRA OVC100 17/16 Q1017=
METAR LKMT 201930Z 19007KT CAVOK 23/14 Q1015 NOSIG=
METAR LKNA 201930Z 15010KT CAVOK 23/14 Q1016 NOSIG RMK BLU BLU=
METAR LKPD 201930Z VRB02KT CAVOK 21/17 Q1013 RMK BLACK=
METAR LKPJ 201930Z AUTO 13004KT 100V170 CAVOK 20/15 Q1015=
METAR LKPR 201930Z 25024G36KT 9999 -TSRA FEW003 SCT043CB 18/15 Q1015 BECMG NSW RMK REG QNH 1010=
METAR LKTB 201930Z 17004KT CAVOK 23/14 Q1015 NOSIG=
METAR LKVO NIL
METAR LOWI 201920Z 04008KT 010V070 9999 -SHRA FEW070CB 27/12 Q1018 TEMPO FM2000 27020G35KT TSRA=
METAR LOWL 201920Z AUTO 08006KT CAVOK 24/16 Q1015 NOSIG=
METAR LOWS 201920Z 16006KT 130V190 CAVOK 23/13 Q1015 NOSIG=
METAR LOWW 201920Z 16010KT CAVOK 23/14 Q1016 NOSIG=
METAR LZIB 201930Z 16003KT 140V210 CAVOK 22/14 Q1017 NOSIG=
METAR LZKZ 201930Z 17003KT 120V200 CAVOK 19/10 Q1017 NOSIG=
METAR LZMC NIL
METAR LZPP 201900Z 11005KT CAVOK 21/13 Q1016=
METAR LZSL NIL
METAR LZTT 201930Z 24009KT 9999 FEW070 19/10 Q1019=
METAR LZZI 201900Z VRB02KT CAVOK 21/14 Q1017=